sensor_id;sensor_type;location;lat;lon;timestamp;P1;durP1;ratioP1;P2;durP2;ratioP2
25509;SDS011;13413;52.336;21.200;2023-04-03T00:00:57;8.40;;;3.20;;
25509;SDS011;13413;52.336;21.200;2023-04-03T00:03:50;7.30;;;2.60;;
25509;SDS011;13413;52.336;21.200;2023-04-03T00:06:45;5.60;;;3.10;;
25509;SDS011;13413;52.336;21.200;2023-04-03T00:09:39;7.20;;;3.10;;
25509;SDS011;13413;52.336;21.200;2023-04-03T00:12:32;7.80;;;3.70;;
25509;SDS011;13413;52.336;21.200;2023-04-03T00:15:27;12.20;;;4.50;;
25509;SDS011;13413;52.336;21.200;2023-04-03T00:18:21;5.40;;;3.00;;
25509;SDS011;13413;52.336;21.200;2023-04-03T00:21:15;9.10;;;3.80;;
25509;SDS011;13413;52.336;21.200;2023-04-03T00:24:09;10.20;;;3.90;;
25509;SDS011;13413;52.336;21.200;2023-04-03T00:27:03;6.10;;;3.40;;
25509;SDS011;13413;52.336;21.200;2023-04-03T00:29:56;7.10;;;2.60;;
25509;SDS011;13413;52.336;21.200;2023-04-03T00:32:51;5.30;;;3.10;;
25509;SDS011;13413;52.336;21.200;2023-04-03T00:35:46;9.60;;;3.00;;
25509;SDS011;13413;52.336;21.200;2023-04-03T00:47:24;9.10;;;3.10;;
25509;SDS011;13413;52.336;21.200;2023-04-03T00:50:19;5.20;;;2.80;;
25509;SDS011;13413;52.336;21.200;2023-04-03T00:53:14;4.10;;;2.20;;
25509;SDS011;13413;52.336;21.200;2023-04-03T00:56:12;4.20;;;2.60;;
25509;SDS011;13413;52.336;21.200;2023-04-03T00:59:10;4.10;;;2.60;;
25509;SDS011;13413;52.336;21.200;2023-04-03T01:02:07;5.60;;;2.40;;
25509;SDS011;13413;52.336;21.200;2023-04-03T01:05:01;6.40;;;2.80;;
25509;SDS011;13413;52.336;21.200;2023-04-03T01:07:56;6.00;;;2.60;;
25509;SDS011;13413;52.336;21.200;2023-04-03T01:10:51;5.20;;;2.10;;
25509;SDS011;13413;52.336;21.200;2023-04-03T01:13:45;4.80;;;2.80;;
25509;SDS011;13413;52.336;21.200;2023-04-03T01:16:39;6.30;;;2.70;;
25509;SDS011;13413;52.336;21.200;2023-04-03T01:19:33;3.40;;;2.00;;
25509;SDS011;13413;52.336;21.200;2023-04-03T01:22:30;5.40;;;3.10;;
25509;SDS011;13413;52.336;21.200;2023-04-03T01:25:31;5.30;;;2.50;;
25509;SDS011;13413;52.336;21.200;2023-04-03T01:28:27;2.70;;;2.00;;
25509;SDS011;13413;52.336;21.200;2023-04-03T01:31:24;4.10;;;2.70;;
25509;SDS011;13413;52.336;21.200;2023-04-03T01:34:20;4.70;;;2.30;;
25509;SDS011;13413;52.336;21.200;2023-04-03T01:37:16;3.30;;;2.20;;
25509;SDS011;13413;52.336;21.200;2023-04-03T01:40:10;3.90;;;1.70;;
25509;SDS011;13413;52.336;21.200;2023-04-03T01:43:04;3.00;;;2.00;;
25509;SDS011;13413;52.336;21.200;2023-04-03T01:45:58;4.40;;;2.30;;
25509;SDS011;13413;52.336;21.200;2023-04-03T01:48:52;4.00;;;2.70;;
25509;SDS011;13413;52.336;21.200;2023-04-03T01:53:14;5.40;;;2.50;;
25509;SDS011;13413;52.336;21.200;2023-04-03T01:56:09;2.10;;;1.90;;
25509;SDS011;13413;52.336;21.200;2023-04-03T01:59:03;3.40;;;2.10;;
25509;SDS011;13413;52.336;21.200;2023-04-03T02:01:57;3.00;;;1.70;;
25509;SDS011;13413;52.336;21.200;2023-04-03T02:04:51;4.90;;;1.80;;
25509;SDS011;13413;52.336;21.200;2023-04-03T02:10:38;5.60;;;2.70;;
25509;SDS011;13413;52.336;21.200;2023-04-03T02:13:32;4.20;;;1.50;;
25509;SDS011;13413;52.336;21.200;2023-04-03T02:16:26;5.10;;;2.40;;
25509;SDS011;13413;52.336;21.200;2023-04-03T02:19:22;4.40;;;2.10;;
25509;SDS011;13413;52.336;21.200;2023-04-03T02:22:16;3.60;;;1.90;;
25509;SDS011;13413;52.336;21.200;2023-04-03T02:25:10;5.50;;;1.80;;
25509;SDS011;13413;52.336;21.200;2023-04-03T02:28:04;7.00;;;3.80;;
25509;SDS011;13413;52.336;21.200;2023-04-03T02:30:58;5.00;;;3.20;;
25509;SDS011;13413;52.336;21.200;2023-04-03T02:33:52;4.40;;;2.50;;
25509;SDS011;13413;52.336;21.200;2023-04-03T02:36:46;5.50;;;2.70;;
25509;SDS011;13413;52.336;21.200;2023-04-03T02:39:40;5.90;;;3.20;;
25509;SDS011;13413;52.336;21.200;2023-04-03T02:42:37;4.80;;;2.70;;
25509;SDS011;13413;52.336;21.200;2023-04-03T02:45:31;7.20;;;3.20;;
25509;SDS011;13413;52.336;21.200;2023-04-03T02:48:27;8.00;;;2.70;;
25509;SDS011;13413;52.336;21.200;2023-04-03T02:51:21;6.10;;;3.00;;
25509;SDS011;13413;52.336;21.200;2023-04-03T02:54:15;3.20;;;2.20;;
25509;SDS011;13413;52.336;21.200;2023-04-03T02:57:09;3.60;;;1.70;;
25509;SDS011;13413;52.336;21.200;2023-04-03T03:00:04;4.30;;;2.00;;
25509;SDS011;13413;52.336;21.200;2023-04-03T03:02:59;5.00;;;2.30;;
25509;SDS011;13413;52.336;21.200;2023-04-03T03:06:01;3.00;;;2.10;;
25509;SDS011;13413;52.336;21.200;2023-04-03T03:08:57;4.70;;;2.60;;
25509;SDS011;13413;52.336;21.200;2023-04-03T03:11:51;3.40;;;2.20;;
25509;SDS011;13413;52.336;21.200;2023-04-03T03:14:45;4.30;;;2.40;;
25509;SDS011;13413;52.336;21.200;2023-04-03T03:17:39;6.60;;;2.60;;
25509;SDS011;13413;52.336;21.200;2023-04-03T03:20:33;10.90;;;4.60;;
25509;SDS011;13413;52.336;21.200;2023-04-03T03:23:28;16.90;;;5.60;;
25509;SDS011;13413;52.336;21.200;2023-04-03T03:26:23;31.00;;;11.60;;
25509;SDS011;13413;52.336;21.200;2023-04-03T03:29:18;18.80;;;6.30;;
25509;SDS011;13413;52.336;21.200;2023-04-03T03:32:12;17.30;;;6.00;;
25509;SDS011;13413;52.336;21.200;2023-04-03T03:35:06;17.10;;;6.70;;
25509;SDS011;13413;52.336;21.200;2023-04-03T03:38:01;20.60;;;8.10;;
25509;SDS011;13413;52.336;21.200;2023-04-03T03:40:55;11.10;;;5.30;;
25509;SDS011;13413;52.336;21.200;2023-04-03T03:43:49;9.70;;;4.10;;
25509;SDS011;13413;52.336;21.200;2023-04-03T03:46:43;9.70;;;4.20;;
25509;SDS011;13413;52.336;21.200;2023-04-03T03:49:53;7.80;;;4.10;;
25509;SDS011;13413;52.336;21.200;2023-04-03T03:52:47;8.60;;;3.90;;
25509;SDS011;13413;52.336;21.200;2023-04-03T03:55:41;12.10;;;5.00;;
25509;SDS011;13413;52.336;21.200;2023-04-03T03:58:35;9.20;;;4.80;;
25509;SDS011;13413;52.336;21.200;2023-04-03T04:01:29;4.90;;;3.70;;
25509;SDS011;13413;52.336;21.200;2023-04-03T04:04:23;6.40;;;2.30;;
25509;SDS011;13413;52.336;21.200;2023-04-03T04:15:57;7.60;;;2.80;;
25509;SDS011;13413;52.336;21.200;2023-04-03T04:18:51;7.60;;;2.60;;
25509;SDS011;13413;52.336;21.200;2023-04-03T04:21:45;7.10;;;4.20;;
25509;SDS011;13413;52.336;21.200;2023-04-03T04:24:39;6.70;;;3.10;;
25509;SDS011;13413;52.336;21.200;2023-04-03T04:27:33;8.90;;;4.50;;
25509;SDS011;13413;52.336;21.200;2023-04-03T04:30:27;11.80;;;4.10;;
25509;SDS011;13413;52.336;21.200;2023-04-03T04:33:21;11.20;;;3.90;;
25509;SDS011;13413;52.336;21.200;2023-04-03T04:36:15;9.20;;;3.20;;
25509;SDS011;13413;52.336;21.200;2023-04-03T04:39:09;15.40;;;4.70;;
25509;SDS011;13413;52.336;21.200;2023-04-03T04:42:03;8.40;;;3.90;;
25509;SDS011;13413;52.336;21.200;2023-04-03T04:44:56;6.90;;;3.30;;
25509;SDS011;13413;52.336;21.200;2023-04-03T04:47:51;9.20;;;4.20;;
25509;SDS011;13413;52.336;21.200;2023-04-03T04:50:47;6.70;;;3.50;;
25509;SDS011;13413;52.336;21.200;2023-04-03T04:53:41;6.10;;;3.20;;
25509;SDS011;13413;52.336;21.200;2023-04-03T04:56:35;12.10;;;3.00;;
25509;SDS011;13413;52.336;21.200;2023-04-03T04:59:29;4.80;;;2.70;;
25509;SDS011;13413;52.336;21.200;2023-04-03T05:02:23;10.20;;;5.60;;
25509;SDS011;13413;52.336;21.200;2023-04-03T05:05:17;9.60;;;4.50;;
25509;SDS011;13413;52.336;21.200;2023-04-03T05:08:11;9.20;;;5.20;;
25509;SDS011;13413;52.336;21.200;2023-04-03T05:11:04;13.10;;;7.00;;
25509;SDS011;13413;52.336;21.200;2023-04-03T05:13:59;22.30;;;8.10;;
25509;SDS011;13413;52.336;21.200;2023-04-03T05:16:53;9.90;;;5.00;;
25509;SDS011;13413;52.336;21.200;2023-04-03T05:19:47;22.20;;;11.00;;
25509;SDS011;13413;52.336;21.200;2023-04-03T05:22:41;24.90;;;9.40;;
25509;SDS011;13413;52.336;21.200;2023-04-03T05:25:34;42.80;;;12.30;;
25509;SDS011;13413;52.336;21.200;2023-04-03T05:28:31;26.30;;;9.10;;
25509;SDS011;13413;52.336;21.200;2023-04-03T05:31:25;33.80;;;11.70;;
25509;SDS011;13413;52.336;21.200;2023-04-03T05:34:19;13.90;;;5.00;;
25509;SDS011;13413;52.336;21.200;2023-04-03T05:37:13;11.90;;;5.20;;
25509;SDS011;13413;52.336;21.200;2023-04-03T05:40:08;47.40;;;14.80;;
25509;SDS011;13413;52.336;21.200;2023-04-03T05:43:02;31.90;;;12.00;;
25509;SDS011;13413;52.336;21.200;2023-04-03T05:45:58;16.50;;;8.50;;
25509;SDS011;13413;52.336;21.200;2023-04-03T05:48:52;13.90;;;6.30;;
25509;SDS011;13413;52.336;21.200;2023-04-03T05:51:46;10.30;;;4.60;;
25509;SDS011;13413;52.336;21.200;2023-04-03T05:54:40;5.20;;;2.90;;
25509;SDS011;13413;52.336;21.200;2023-04-03T05:57:34;9.60;;;4.30;;
25509;SDS011;13413;52.336;21.200;2023-04-03T06:00:28;7.40;;;3.70;;
25509;SDS011;13413;52.336;21.200;2023-04-03T06:03:22;9.30;;;3.30;;
25509;SDS011;13413;52.336;21.200;2023-04-03T06:06:16;9.10;;;4.00;;
25509;SDS011;13413;52.336;21.200;2023-04-03T06:09:09;9.70;;;4.40;;
25509;SDS011;13413;52.336;21.200;2023-04-03T06:12:04;8.40;;;5.20;;
25509;SDS011;13413;52.336;21.200;2023-04-03T06:14:58;7.70;;;4.20;;
25509;SDS011;13413;52.336;21.200;2023-04-03T06:17:52;5.80;;;3.20;;
25509;SDS011;13413;52.336;21.200;2023-04-03T06:20:46;11.40;;;3.20;;
25509;SDS011;13413;52.336;21.200;2023-04-03T06:32:05;11.60;;;5.40;;
25509;SDS011;13413;52.336;21.200;2023-04-03T06:34:59;11.10;;;5.60;;
25509;SDS011;13413;52.336;21.200;2023-04-03T06:37:53;9.50;;;4.70;;
25509;SDS011;13413;52.336;21.200;2023-04-03T06:40:47;6.80;;;3.30;;
25509;SDS011;13413;52.336;21.200;2023-04-03T06:43:41;6.90;;;3.60;;
25509;SDS011;13413;52.336;21.200;2023-04-03T06:46:35;11.80;;;4.70;;
25509;SDS011;13413;52.336;21.200;2023-04-03T06:49:29;12.80;;;3.20;;
25509;SDS011;13413;52.336;21.200;2023-04-03T06:52:23;8.80;;;2.50;;
25509;SDS011;13413;52.336;21.200;2023-04-03T06:58:11;5.30;;;3.20;;
25509;SDS011;13413;52.336;21.200;2023-04-03T07:01:06;6.40;;;3.80;;
25509;SDS011;13413;52.336;21.200;2023-04-03T07:06:54;12.00;;;5.10;;
25509;SDS011;13413;52.336;21.200;2023-04-03T07:09:48;11.80;;;4.50;;
25509;SDS011;13413;52.336;21.200;2023-04-03T07:12:42;10.50;;;4.20;;
25509;SDS011;13413;52.336;21.200;2023-04-03T07:15:36;4.50;;;2.90;;
25509;SDS011;13413;52.336;21.200;2023-04-03T07:18:30;9.60;;;4.00;;
25509;SDS011;13413;52.336;21.200;2023-04-03T07:21:25;6.90;;;3.70;;
25509;SDS011;13413;52.336;21.200;2023-04-03T07:24:19;18.90;;;9.10;;
25509;SDS011;13413;52.336;21.200;2023-04-03T07:27:14;16.70;;;7.40;;
25509;SDS011;13413;52.336;21.200;2023-04-03T07:30:09;8.30;;;5.00;;
25509;SDS011;13413;52.336;21.200;2023-04-03T07:33:04;9.00;;;4.10;;
25509;SDS011;13413;52.336;21.200;2023-04-03T07:35:58;5.80;;;3.60;;
25509;SDS011;13413;52.336;21.200;2023-04-03T07:38:53;5.80;;;4.10;;
25509;SDS011;13413;52.336;21.200;2023-04-03T07:41:49;6.00;;;3.70;;
25509;SDS011;13413;52.336;21.200;2023-04-03T07:44:43;10.70;;;4.10;;
25509;SDS011;13413;52.336;21.200;2023-04-03T07:47:37;6.40;;;3.70;;
25509;SDS011;13413;52.336;21.200;2023-04-03T07:50:31;10.60;;;5.30;;
25509;SDS011;13413;52.336;21.200;2023-04-03T07:53:25;6.10;;;4.00;;
25509;SDS011;13413;52.336;21.200;2023-04-03T07:56:19;9.90;;;4.00;;
25509;SDS011;13413;52.336;21.200;2023-04-03T07:59:13;6.30;;;3.50;;
25509;SDS011;13413;52.336;21.200;2023-04-03T08:02:09;7.10;;;3.10;;
25509;SDS011;13413;52.336;21.200;2023-04-03T08:05:04;6.50;;;3.40;;
25509;SDS011;13413;52.336;21.200;2023-04-03T08:07:58;7.40;;;3.50;;
25509;SDS011;13413;52.336;21.200;2023-04-03T08:10:52;6.00;;;3.40;;
25509;SDS011;13413;52.336;21.200;2023-04-03T08:13:47;4.20;;;2.00;;
25509;SDS011;13413;52.336;21.200;2023-04-03T08:16:41;4.60;;;2.70;;
25509;SDS011;13413;52.336;21.200;2023-04-03T08:19:36;4.60;;;2.10;;
25509;SDS011;13413;52.336;21.200;2023-04-03T08:25:26;4.90;;;2.40;;
25509;SDS011;13413;52.336;21.200;2023-04-03T08:28:21;3.10;;;1.90;;
25509;SDS011;13413;52.336;21.200;2023-04-03T08:34:08;4.20;;;2.20;;
25509;SDS011;13413;52.336;21.200;2023-04-03T08:37:02;3.40;;;2.30;;
25509;SDS011;13413;52.336;21.200;2023-04-03T08:39:56;3.20;;;2.10;;
25509;SDS011;13413;52.336;21.200;2023-04-03T08:51:33;3.10;;;2.30;;
25509;SDS011;13413;52.336;21.200;2023-04-03T08:54:29;4.20;;;2.20;;
25509;SDS011;13413;52.336;21.200;2023-04-03T08:57:28;3.80;;;2.10;;
25509;SDS011;13413;52.336;21.200;2023-04-03T09:00:27;4.60;;;2.00;;
25509;SDS011;13413;52.336;21.200;2023-04-03T09:03:36;4.80;;;2.40;;
25509;SDS011;13413;52.336;21.200;2023-04-03T09:06:31;3.70;;;2.90;;
25509;SDS011;13413;52.336;21.200;2023-04-03T09:09:29;4.40;;;2.20;;
25509;SDS011;13413;52.336;21.200;2023-04-03T09:12:29;3.10;;;2.20;;
25509;SDS011;13413;52.336;21.200;2023-04-03T09:15:28;3.00;;;2.50;;
25509;SDS011;13413;52.336;21.200;2023-04-03T09:18:23;4.90;;;2.40;;
25509;SDS011;13413;52.336;21.200;2023-04-03T09:21:23;4.20;;;2.60;;
25509;SDS011;13413;52.336;21.200;2023-04-03T09:24:22;3.20;;;2.20;;
25509;SDS011;13413;52.336;21.200;2023-04-03T09:30:11;8.00;;;4.20;;
25509;SDS011;13413;52.336;21.200;2023-04-03T09:33:07;9.00;;;4.70;;
25509;SDS011;13413;52.336;21.200;2023-04-03T09:36:04;6.40;;;3.80;;
25509;SDS011;13413;52.336;21.200;2023-04-03T09:39:04;4.50;;;2.30;;
25509;SDS011;13413;52.336;21.200;2023-04-03T09:42:03;17.60;;;7.70;;
25509;SDS011;13413;52.336;21.200;2023-04-03T09:44:59;5.60;;;3.70;;
25509;SDS011;13413;52.336;21.200;2023-04-03T09:48:05;3.20;;;1.90;;
25509;SDS011;13413;52.336;21.200;2023-04-03T09:51:08;3.50;;;2.40;;
25509;SDS011;13413;52.336;21.200;2023-04-03T09:54:25;4.80;;;3.20;;
25509;SDS011;13413;52.336;21.200;2023-04-03T09:57:28;5.10;;;3.20;;
25509;SDS011;13413;52.336;21.200;2023-04-03T10:00:27;3.90;;;3.00;;
25509;SDS011;13413;52.336;21.200;2023-04-03T10:03:25;4.80;;;3.40;;
25509;SDS011;13413;52.336;21.200;2023-04-03T10:06:22;4.70;;;2.70;;
25509;SDS011;13413;52.336;21.200;2023-04-03T10:09:21;3.10;;;2.10;;
25509;SDS011;13413;52.336;21.200;2023-04-03T10:12:17;5.70;;;2.50;;
25509;SDS011;13413;52.336;21.200;2023-04-03T10:15:14;10.00;;;4.10;;
25509;SDS011;13413;52.336;21.200;2023-04-03T10:18:14;10.30;;;4.50;;
25509;SDS011;13413;52.336;21.200;2023-04-03T10:21:23;7.10;;;3.10;;
25509;SDS011;13413;52.336;21.200;2023-04-03T10:24:29;9.20;;;4.30;;
25509;SDS011;13413;52.336;21.200;2023-04-03T10:27:31;3.80;;;2.60;;
25509;SDS011;13413;52.336;21.200;2023-04-03T10:30:39;4.50;;;2.70;;
25509;SDS011;13413;52.336;21.200;2023-04-03T10:33:46;3.70;;;2.30;;
25509;SDS011;13413;52.336;21.200;2023-04-03T10:36:48;3.20;;;2.40;;
25509;SDS011;13413;52.336;21.200;2023-04-03T10:39:52;2.20;;;1.80;;
25509;SDS011;13413;52.336;21.200;2023-04-03T10:42:52;4.80;;;1.80;;
25509;SDS011;13413;52.336;21.200;2023-04-03T10:45:53;6.40;;;3.50;;
25509;SDS011;13413;52.336;21.200;2023-04-03T10:49:08;4.00;;;2.20;;
25509;SDS011;13413;52.336;21.200;2023-04-03T10:52:12;4.40;;;2.10;;
25509;SDS011;13413;52.336;21.200;2023-04-03T10:55:16;6.50;;;2.20;;
25509;SDS011;13413;52.336;21.200;2023-04-03T10:58:24;4.40;;;2.00;;
25509;SDS011;13413;52.336;21.200;2023-04-03T11:12:43;6.50;;;2.90;;
25509;SDS011;13413;52.336;21.200;2023-04-03T11:15:39;7.00;;;3.00;;
25509;SDS011;13413;52.336;21.200;2023-04-03T11:18:34;7.20;;;4.10;;
25509;SDS011;13413;52.336;21.200;2023-04-03T11:21:33;8.30;;;3.90;;
25509;SDS011;13413;52.336;21.200;2023-04-03T11:24:32;4.00;;;2.70;;
25509;SDS011;13413;52.336;21.200;2023-04-03T11:27:33;2.40;;;2.00;;
25509;SDS011;13413;52.336;21.200;2023-04-03T11:30:33;9.90;;;6.50;;
25509;SDS011;13413;52.336;21.200;2023-04-03T11:33:39;6.70;;;4.50;;
25509;SDS011;13413;52.336;21.200;2023-04-03T11:36:42;5.90;;;4.00;;
25509;SDS011;13413;52.336;21.200;2023-04-03T11:39:39;4.10;;;2.50;;
25509;SDS011;13413;52.336;21.200;2023-04-03T11:42:40;6.00;;;3.10;;
25509;SDS011;13413;52.336;21.200;2023-04-03T11:45:45;5.00;;;2.40;;
25509;SDS011;13413;52.336;21.200;2023-04-03T11:48:49;6.80;;;2.30;;
25509;SDS011;13413;52.336;21.200;2023-04-03T11:51:44;1.90;;;1.50;;
25509;SDS011;13413;52.336;21.200;2023-04-03T11:54:45;3.90;;;2.00;;
25509;SDS011;13413;52.336;21.200;2023-04-03T11:57:46;5.90;;;2.40;;
25509;SDS011;13413;52.336;21.200;2023-04-03T12:00:49;11.40;;;3.40;;
25509;SDS011;13413;52.336;21.200;2023-04-03T12:10:18;11.70;;;3.80;;
25509;SDS011;13413;52.336;21.200;2023-04-03T12:13:15;5.40;;;2.10;;
25509;SDS011;13413;52.336;21.200;2023-04-03T12:16:18;4.90;;;1.90;;
25509;SDS011;13413;52.336;21.200;2023-04-03T12:19:36;15.90;;;5.20;;
25509;SDS011;13413;52.336;21.200;2023-04-03T12:22:31;5.10;;;2.50;;
25509;SDS011;13413;52.336;21.200;2023-04-03T12:25:48;4.30;;;2.60;;
25509;SDS011;13413;52.336;21.200;2023-04-03T12:28:43;8.60;;;4.00;;
25509;SDS011;13413;52.336;21.200;2023-04-03T12:31:40;6.80;;;3.50;;
25509;SDS011;13413;52.336;21.200;2023-04-03T12:34:53;8.70;;;5.10;;
25509;SDS011;13413;52.336;21.200;2023-04-03T12:38:10;4.80;;;3.30;;
25509;SDS011;13413;52.336;21.200;2023-04-03T12:41:23;4.20;;;2.10;;
25509;SDS011;13413;52.336;21.200;2023-04-03T12:44:37;4.40;;;1.80;;
25509;SDS011;13413;52.336;21.200;2023-04-03T12:47:37;9.00;;;3.10;;
25509;SDS011;13413;52.336;21.200;2023-04-03T12:50:34;8.10;;;4.30;;
25509;SDS011;13413;52.336;21.200;2023-04-03T12:53:29;13.50;;;3.30;;
25509;SDS011;13413;52.336;21.200;2023-04-03T12:56:27;7.90;;;2.60;;
25509;SDS011;13413;52.336;21.200;2023-04-03T12:59:23;9.80;;;3.90;;
25509;SDS011;13413;52.336;21.200;2023-04-03T13:02:20;5.60;;;2.70;;
25509;SDS011;13413;52.336;21.200;2023-04-03T13:05:17;18.50;;;4.10;;
25509;SDS011;13413;52.336;21.200;2023-04-03T13:08:12;6.30;;;3.30;;
25509;SDS011;13413;52.336;21.200;2023-04-03T13:11:09;11.20;;;3.80;;
25509;SDS011;13413;52.336;21.200;2023-04-03T13:14:05;5.00;;;2.30;;
25509;SDS011;13413;52.336;21.200;2023-04-03T13:17:12;7.90;;;2.60;;
25509;SDS011;13413;52.336;21.200;2023-04-03T13:20:11;4.10;;;1.80;;
25509;SDS011;13413;52.336;21.200;2023-04-03T13:23:10;6.60;;;3.70;;
25509;SDS011;13413;52.336;21.200;2023-04-03T13:26:08;3.90;;;2.30;;
25509;SDS011;13413;52.336;21.200;2023-04-03T13:29:04;7.70;;;3.00;;
25509;SDS011;13413;52.336;21.200;2023-04-03T13:32:16;24.20;;;10.90;;
25509;SDS011;13413;52.336;21.200;2023-04-03T13:35:30;34.40;;;17.70;;
25509;SDS011;13413;52.336;21.200;2023-04-03T13:38:31;16.20;;;8.60;;
25509;SDS011;13413;52.336;21.200;2023-04-03T13:41:29;13.20;;;6.90;;
25509;SDS011;13413;52.336;21.200;2023-04-03T13:47:37;6.20;;;3.50;;
25509;SDS011;13413;52.336;21.200;2023-04-03T13:50:33;8.10;;;3.60;;
25509;SDS011;13413;52.336;21.200;2023-04-03T13:53:44;15.80;;;8.40;;
25509;SDS011;13413;52.336;21.200;2023-04-03T13:56:40;12.30;;;7.80;;
25509;SDS011;13413;52.336;21.200;2023-04-03T13:59:35;18.60;;;7.50;;
25509;SDS011;13413;52.336;21.200;2023-04-03T14:02:31;8.50;;;3.90;;
25509;SDS011;13413;52.336;21.200;2023-04-03T14:05:25;6.10;;;4.20;;
25509;SDS011;13413;52.336;21.200;2023-04-03T14:08:20;13.30;;;7.10;;
25509;SDS011;13413;52.336;21.200;2023-04-03T14:16:53;13.60;;;7.10;;
25509;SDS011;13413;52.336;21.200;2023-04-03T14:19:49;11.40;;;4.30;;
25509;SDS011;13413;52.336;21.200;2023-04-03T14:22:44;7.80;;;4.60;;
25509;SDS011;13413;52.336;21.200;2023-04-03T14:28:32;7.20;;;3.90;;
25509;SDS011;13413;52.336;21.200;2023-04-03T14:31:28;10.70;;;3.90;;
25509;SDS011;13413;52.336;21.200;2023-04-03T14:34:21;5.30;;;2.40;;
25509;SDS011;13413;52.336;21.200;2023-04-03T14:37:17;11.80;;;4.00;;
25509;SDS011;13413;52.336;21.200;2023-04-03T14:40:14;10.80;;;4.90;;
25509;SDS011;13413;52.336;21.200;2023-04-03T14:43:11;12.10;;;5.20;;
25509;SDS011;13413;52.336;21.200;2023-04-03T14:49:05;9.60;;;4.20;;
25509;SDS011;13413;52.336;21.200;2023-04-03T14:52:06;4.40;;;2.60;;
25509;SDS011;13413;52.336;21.200;2023-04-03T14:55:08;8.80;;;3.80;;
25509;SDS011;13413;52.336;21.200;2023-04-03T14:58:05;16.90;;;6.20;;
25509;SDS011;13413;52.336;21.200;2023-04-03T15:01:01;10.00;;;5.00;;
25509;SDS011;13413;52.336;21.200;2023-04-03T15:03:55;3.50;;;2.50;;
25509;SDS011;13413;52.336;21.200;2023-04-03T15:06:49;5.00;;;3.00;;
25509;SDS011;13413;52.336;21.200;2023-04-03T15:09:44;7.10;;;3.80;;
25509;SDS011;13413;52.336;21.200;2023-04-03T15:12:38;26.60;;;10.40;;
25509;SDS011;13413;52.336;21.200;2023-04-03T15:15:32;10.80;;;4.80;;
25509;SDS011;13413;52.336;21.200;2023-04-03T15:18:29;4.80;;;3.10;;
25509;SDS011;13413;52.336;21.200;2023-04-03T15:21:29;5.40;;;3.50;;
25509;SDS011;13413;52.336;21.200;2023-04-03T15:24:24;6.90;;;3.20;;
25509;SDS011;13413;52.336;21.200;2023-04-03T15:27:19;10.60;;;3.90;;
25509;SDS011;13413;52.336;21.200;2023-04-03T15:30:14;8.10;;;4.00;;
25509;SDS011;13413;52.336;21.200;2023-04-03T15:33:10;11.30;;;4.80;;
25509;SDS011;13413;52.336;21.200;2023-04-03T15:36:05;17.20;;;7.40;;
25509;SDS011;13413;52.336;21.200;2023-04-03T15:39:00;21.50;;;10.90;;
25509;SDS011;13413;52.336;21.200;2023-04-03T15:41:55;10.30;;;6.00;;
25509;SDS011;13413;52.336;21.200;2023-04-03T15:44:50;14.20;;;6.50;;
25509;SDS011;13413;52.336;21.200;2023-04-03T15:47:44;12.30;;;5.80;;
25509;SDS011;13413;52.336;21.200;2023-04-03T15:53:32;19.80;;;7.70;;
25509;SDS011;13413;52.336;21.200;2023-04-03T15:56:26;29.10;;;13.40;;
25509;SDS011;13413;52.336;21.200;2023-04-03T15:59:21;25.90;;;12.00;;
25509;SDS011;13413;52.336;21.200;2023-04-03T16:02:16;13.50;;;7.00;;
25509;SDS011;13413;52.336;21.200;2023-04-03T16:05:11;17.20;;;7.40;;
25509;SDS011;13413;52.336;21.200;2023-04-03T16:08:07;23.30;;;10.50;;
25509;SDS011;13413;52.336;21.200;2023-04-03T16:11:02;13.30;;;6.90;;
25509;SDS011;13413;52.336;21.200;2023-04-03T16:13:57;10.30;;;5.70;;
25509;SDS011;13413;52.336;21.200;2023-04-03T16:16:52;14.30;;;6.20;;
25509;SDS011;13413;52.336;21.200;2023-04-03T16:19:49;9.00;;;4.00;;
25509;SDS011;13413;52.336;21.200;2023-04-03T16:22:44;10.30;;;4.90;;
25509;SDS011;13413;52.336;21.200;2023-04-03T16:25:37;11.10;;;5.60;;
25509;SDS011;13413;52.336;21.200;2023-04-03T16:37:45;12.50;;;5.20;;
25509;SDS011;13413;52.336;21.200;2023-04-03T16:40:38;17.50;;;7.40;;
25509;SDS011;13413;52.336;21.200;2023-04-03T16:43:32;10.00;;;5.00;;
25509;SDS011;13413;52.336;21.200;2023-04-03T16:46:25;29.00;;;9.20;;
25509;SDS011;13413;52.336;21.200;2023-04-03T16:49:18;28.20;;;8.80;;
25509;SDS011;13413;52.336;21.200;2023-04-03T16:52:11;25.30;;;9.20;;
25509;SDS011;13413;52.336;21.200;2023-04-03T16:55:06;25.60;;;8.60;;
25509;SDS011;13413;52.336;21.200;2023-04-03T16:57:59;18.60;;;7.30;;
25509;SDS011;13413;52.336;21.200;2023-04-03T17:00:53;14.70;;;7.40;;
25509;SDS011;13413;52.336;21.200;2023-04-03T17:03:47;23.20;;;8.50;;
25509;SDS011;13413;52.336;21.200;2023-04-03T17:06:40;27.30;;;9.00;;
25509;SDS011;13413;52.336;21.200;2023-04-03T17:09:33;24.60;;;10.20;;
25509;SDS011;13413;52.336;21.200;2023-04-03T17:12:26;25.00;;;10.20;;
25509;SDS011;13413;52.336;21.200;2023-04-03T17:15:20;30.30;;;12.70;;
25509;SDS011;13413;52.336;21.200;2023-04-03T17:18:13;27.00;;;12.90;;
25509;SDS011;13413;52.336;21.200;2023-04-03T17:21:07;20.40;;;9.30;;
25509;SDS011;13413;52.336;21.200;2023-04-03T17:24:00;16.30;;;8.40;;
25509;SDS011;13413;52.336;21.200;2023-04-03T17:26:56;23.60;;;9.30;;
25509;SDS011;13413;52.336;21.200;2023-04-03T17:29:48;27.90;;;11.40;;
25509;SDS011;13413;52.336;21.200;2023-04-03T17:32:41;31.40;;;14.00;;
25509;SDS011;13413;52.336;21.200;2023-04-03T17:35:34;24.90;;;11.70;;
25509;SDS011;13413;52.336;21.200;2023-04-03T17:38:28;26.60;;;11.40;;
25509;SDS011;13413;52.336;21.200;2023-04-03T17:41:20;43.90;;;15.90;;
25509;SDS011;13413;52.336;21.200;2023-04-03T17:44:13;40.10;;;17.10;;
25509;SDS011;13413;52.336;21.200;2023-04-03T17:47:07;66.50;;;23.40;;
25509;SDS011;13413;52.336;21.200;2023-04-03T17:49:59;75.20;;;28.40;;
25509;SDS011;13413;52.336;21.200;2023-04-03T17:52:52;83.40;;;33.10;;
25509;SDS011;13413;52.336;21.200;2023-04-03T17:55:45;59.40;;;27.40;;
25509;SDS011;13413;52.336;21.200;2023-04-03T17:58:38;52.60;;;24.40;;
25509;SDS011;13413;52.336;21.200;2023-04-03T18:01:32;32.30;;;14.90;;
25509;SDS011;13413;52.336;21.200;2023-04-03T18:04:26;29.90;;;11.80;;
25509;SDS011;13413;52.336;21.200;2023-04-03T18:07:18;39.40;;;16.30;;
25509;SDS011;13413;52.336;21.200;2023-04-03T18:10:12;62.50;;;20.00;;
25509;SDS011;13413;52.336;21.200;2023-04-03T18:13:05;67.00;;;24.90;;
25509;SDS011;13413;52.336;21.200;2023-04-03T18:15:58;51.20;;;20.30;;
25509;SDS011;13413;52.336;21.200;2023-04-03T18:18:52;65.70;;;23.10;;
25509;SDS011;13413;52.336;21.200;2023-04-03T18:44:27;42.50;;;23.90;;
25509;SDS011;13413;52.336;21.200;2023-04-03T18:47:22;32.50;;;18.50;;
25509;SDS011;13413;52.336;21.200;2023-04-03T18:50:18;27.40;;;14.40;;
25509;SDS011;13413;52.336;21.200;2023-04-03T18:53:14;25.40;;;12.80;;
25509;SDS011;13413;52.336;21.200;2023-04-03T18:56:08;31.70;;;14.50;;
25509;SDS011;13413;52.336;21.200;2023-04-03T18:59:02;21.40;;;11.30;;
25509;SDS011;13413;52.336;21.200;2023-04-03T19:01:56;20.90;;;10.40;;
25509;SDS011;13413;52.336;21.200;2023-04-03T19:04:51;20.00;;;9.30;;
25509;SDS011;13413;52.336;21.200;2023-04-03T19:10:38;16.50;;;8.80;;
25509;SDS011;13413;52.336;21.200;2023-04-03T19:13:33;15.60;;;8.00;;
25509;SDS011;13413;52.336;21.200;2023-04-03T19:16:28;26.20;;;12.40;;
25509;SDS011;13413;52.336;21.200;2023-04-03T19:19:22;31.40;;;15.20;;
25509;SDS011;13413;52.336;21.200;2023-04-03T19:22:16;28.90;;;14.60;;